Weather at Perris Valley Airport

Public forecast

Using degrees Fahrenheit for public forecast. Weather courtesy of forecast.io.

Closest aviation weather report (METAR) to Perris Valley Airport

Closest report is March Air Reserve Base, 7.5 nm (13.8 km) NNW. Retrieved 2021/08/05 10:58 UTC (17 minutes ago):

KRIV 051058Z AUTO 30003KT 10SM CLR 21/12 A2991 RMK AO2 SLP111 T02060118

Closest aviation forecast (TAF) to Perris Valley Airport

Forecast is more than 6 hours old.

Closest forecast is March Air Reserve Base, 7.5 nm (13.8 km) NNW. Retrieved 2021-08-05 04:09 UTC (7 hours ago):

TAF TAF KRIV 050400Z 0504/0610 31006KT 9999 SKC QNH2990INS BECMG 0506/0507 VRB04KT 9999 SKC QNH2993INS BECMG 0519/0520 31009KT 9999 SKC 510005 QNH2988INS TEMPO 0521/0602 31012G20KT BECMG 0605/0606 VRB04KT 9999 SKC QNH2992INS TX38/0522Z TN17/0513Z